sensor_id;sensor_type;location;lat;lon;timestamp;temperature;humidity
37380;DHT22;23252;-33.992;18.480;2023-06-01T00:02:01;15.60;99.90
37380;DHT22;23252;-33.992;18.480;2023-06-01T00:04:27;15.60;99.90
37380;DHT22;23252;-33.992;18.480;2023-06-01T00:06:53;15.50;99.90
37380;DHT22;23252;-33.992;18.480;2023-06-01T04:15:19;15.60;99.90
37380;DHT22;23252;-33.992;18.480;2023-06-01T04:17:46;15.80;99.90
37380;DHT22;23252;-33.992;18.480;2023-06-01T04:20:14;15.80;99.90
37380;DHT22;23252;-33.992;18.480;2023-06-01T04:22:47;15.80;99.90
37380;DHT22;23252;-33.992;18.480;2023-06-01T04:25:15;15.80;99.90
37380;DHT22;23252;-33.992;18.480;2023-06-01T04:27:48;15.80;99.90
37380;DHT22;23252;-33.992;18.480;2023-06-01T04:30:15;15.80;99.90
37380;DHT22;23252;-33.992;18.480;2023-06-01T04:32:42;15.80;99.90
37380;DHT22;23252;-33.992;18.480;2023-06-01T04:35:10;15.80;99.90
37380;DHT22;23252;-33.992;18.480;2023-06-01T04:37:37;15.80;99.90
37380;DHT22;23252;-33.992;18.480;2023-06-01T04:40:09;15.80;99.90
37380;DHT22;23252;-33.992;18.480;2023-06-01T04:42:37;15.80;99.90
37380;DHT22;23252;-33.992;18.480;2023-06-01T04:45:06;15.80;99.90
37380;DHT22;23252;-33.992;18.480;2023-06-01T04:47:34;15.80;99.90
37380;DHT22;23252;-33.992;18.480;2023-06-01T04:50:09;15.80;99.90
37380;DHT22;23252;-33.992;18.480;2023-06-01T04:52:40;15.80;99.90
37380;DHT22;23252;-33.992;18.480;2023-06-01T04:55:08;15.80;99.90
37380;DHT22;23252;-33.992;18.480;2023-06-01T04:57:35;15.90;99.90
37380;DHT22;23252;-33.992;18.480;2023-06-01T05:00:03;15.90;99.90
37380;DHT22;23252;-33.992;18.480;2023-06-01T05:02:41;15.90;99.90
37380;DHT22;23252;-33.992;18.480;2023-06-01T05:05:12;15.90;99.90
37380;DHT22;23252;-33.992;18.480;2023-06-01T05:07:40;15.90;99.90
37380;DHT22;23252;-33.992;18.480;2023-06-01T05:10:09;15.90;99.90
37380;DHT22;23252;-33.992;18.480;2023-06-01T05:12:37;16.00;99.90
37380;DHT22;23252;-33.992;18.480;2023-06-01T05:15:07;15.90;99.90
37380;DHT22;23252;-33.992;18.480;2023-06-01T05:17:34;15.90;99.90
37380;DHT22;23252;-33.992;18.480;2023-06-01T05:20:01;15.90;99.90
37380;DHT22;23252;-33.992;18.480;2023-06-01T05:22:31;15.90;99.90
37380;DHT22;23252;-33.992;18.480;2023-06-01T05:24:57;15.90;99.90
37380;DHT22;23252;-33.992;18.480;2023-06-01T05:27:24;15.90;99.90
37380;DHT22;23252;-33.992;18.480;2023-06-01T05:29:50;15.90;99.90
37380;DHT22;23252;-33.992;18.480;2023-06-01T05:32:17;15.90;99.90
37380;DHT22;23252;-33.992;18.480;2023-06-01T05:34:44;15.90;99.90
37380;DHT22;23252;-33.992;18.480;2023-06-01T05:37:10;15.90;99.90
37380;DHT22;23252;-33.992;18.480;2023-06-01T05:39:36;15.90;99.90
37380;DHT22;23252;-33.992;18.480;2023-06-01T05:42:03;16.00;99.90
37380;DHT22;23252;-33.992;18.480;2023-06-01T05:44:33;15.90;99.90
37380;DHT22;23252;-33.992;18.480;2023-06-01T05:46:59;15.90;99.90
37380;DHT22;23252;-33.992;18.480;2023-06-01T05:49:26;16.00;99.90
37380;DHT22;23252;-33.992;18.480;2023-06-01T05:51:56;16.00;99.90
37380;DHT22;23252;-33.992;18.480;2023-06-01T05:54:22;16.00;99.90
37380;DHT22;23252;-33.992;18.480;2023-06-01T05:56:49;16.00;99.90
37380;DHT22;23252;-33.992;18.480;2023-06-01T05:59:15;16.00;99.90
37380;DHT22;23252;-33.992;18.480;2023-06-01T06:01:42;16.00;99.90
37380;DHT22;23252;-33.992;18.480;2023-06-01T06:04:10;16.10;99.90
37380;DHT22;23252;-33.992;18.480;2023-06-01T06:06:36;16.10;99.90
37380;DHT22;23252;-33.992;18.480;2023-06-01T06:09:03;16.10;99.90
37380;DHT22;23252;-33.992;18.480;2023-06-01T06:11:30;16.10;99.90
37380;DHT22;23252;-33.992;18.480;2023-06-01T06:13:57;16.00;99.90
37380;DHT22;23252;-33.992;18.480;2023-06-01T06:16:23;16.00;99.90
37380;DHT22;23252;-33.992;18.480;2023-06-01T06:18:50;16.00;99.90
37380;DHT22;23252;-33.992;18.480;2023-06-01T06:21:17;16.00;99.90
37380;DHT22;23252;-33.992;18.480;2023-06-01T06:23:43;16.00;99.90
37380;DHT22;23252;-33.992;18.480;2023-06-01T06:26:11;16.00;99.90
37380;DHT22;23252;-33.992;18.480;2023-06-01T06:28:37;16.00;99.90
37380;DHT22;23252;-33.992;18.480;2023-06-01T06:31:03;16.00;99.90
37380;DHT22;23252;-33.992;18.480;2023-06-01T06:33:33;16.10;99.90
37380;DHT22;23252;-33.992;18.480;2023-06-01T06:36:01;16.20;99.90
37380;DHT22;23252;-33.992;18.480;2023-06-01T06:38:27;16.20;99.90
37380;DHT22;23252;-33.992;18.480;2023-06-01T06:40:54;16.20;99.90
37380;DHT22;23252;-33.992;18.480;2023-06-01T06:43:23;16.20;99.90
37380;DHT22;23252;-33.992;18.480;2023-06-01T06:45:49;16.20;99.90
37380;DHT22;23252;-33.992;18.480;2023-06-01T06:48:15;16.10;99.90
37380;DHT22;23252;-33.992;18.480;2023-06-01T06:50:42;16.20;99.90
37380;DHT22;23252;-33.992;18.480;2023-06-01T06:53:10;16.20;99.90
37380;DHT22;23252;-33.992;18.480;2023-06-01T06:55:37;16.20;99.90
37380;DHT22;23252;-33.992;18.480;2023-06-01T06:58:03;16.30;99.90
37380;DHT22;23252;-33.992;18.480;2023-06-01T07:00:30;16.40;99.90
37380;DHT22;23252;-33.992;18.480;2023-06-01T07:02:57;16.50;99.90
37380;DHT22;23252;-33.992;18.480;2023-06-01T07:05:25;16.50;99.90
37380;DHT22;23252;-33.992;18.480;2023-06-01T07:07:51;16.50;99.90
37380;DHT22;23252;-33.992;18.480;2023-06-01T07:10:18;16.50;99.90
37380;DHT22;23252;-33.992;18.480;2023-06-01T07:12:45;16.60;99.90
37380;DHT22;23252;-33.992;18.480;2023-06-01T07:15:11;16.60;99.90
37380;DHT22;23252;-33.992;18.480;2023-06-01T07:17:38;16.60;99.90
37380;DHT22;23252;-33.992;18.480;2023-06-01T07:20:06;16.70;99.90
37380;DHT22;23252;-33.992;18.480;2023-06-01T07:22:33;16.70;99.90
37380;DHT22;23252;-33.992;18.480;2023-06-01T07:25:00;16.70;99.90
37380;DHT22;23252;-33.992;18.480;2023-06-01T07:27:27;16.70;99.90
37380;DHT22;23252;-33.992;18.480;2023-06-01T07:29:54;16.70;99.90
37380;DHT22;23252;-33.992;18.480;2023-06-01T07:32:24;16.70;99.90
37380;DHT22;23252;-33.992;18.480;2023-06-01T07:34:51;16.80;99.90
37380;DHT22;23252;-33.992;18.480;2023-06-01T07:37:18;16.90;99.90
37380;DHT22;23252;-33.992;18.480;2023-06-01T07:39:48;17.00;99.90
37380;DHT22;23252;-33.992;18.480;2023-06-01T07:42:15;17.00;99.90
37380;DHT22;23252;-33.992;18.480;2023-06-01T07:44:41;17.00;99.90
37380;DHT22;23252;-33.992;18.480;2023-06-01T07:47:08;17.10;99.90
37380;DHT22;23252;-33.992;18.480;2023-06-01T07:49:35;17.20;99.90
37380;DHT22;23252;-33.992;18.480;2023-06-01T07:52:03;17.30;99.90
37380;DHT22;23252;-33.992;18.480;2023-06-01T07:54:29;17.30;99.90
37380;DHT22;23252;-33.992;18.480;2023-06-01T07:56:55;17.40;99.90
37380;DHT22;23252;-33.992;18.480;2023-06-01T07:59:23;17.50;99.90
37380;DHT22;23252;-33.992;18.480;2023-06-01T08:01:53;17.50;99.90
37380;DHT22;23252;-33.992;18.480;2023-06-01T08:04:22;17.60;99.90
37380;DHT22;23252;-33.992;18.480;2023-06-01T08:06:50;17.60;99.90
37380;DHT22;23252;-33.992;18.480;2023-06-01T08:09:20;17.60;99.90
37380;DHT22;23252;-33.992;18.480;2023-06-01T08:11:48;17.60;99.90
37380;DHT22;23252;-33.992;18.480;2023-06-01T08:14:15;17.60;99.90
37380;DHT22;23252;-33.992;18.480;2023-06-01T08:16:42;17.60;99.90
37380;DHT22;23252;-33.992;18.480;2023-06-01T08:19:08;17.60;99.90
37380;DHT22;23252;-33.992;18.480;2023-06-01T08:21:35;17.60;99.90
37380;DHT22;23252;-33.992;18.480;2023-06-01T08:24:02;17.60;99.90
37380;DHT22;23252;-33.992;18.480;2023-06-01T08:26:29;17.60;99.90
37380;DHT22;23252;-33.992;18.480;2023-06-01T08:28:56;17.70;99.90
37380;DHT22;23252;-33.992;18.480;2023-06-01T08:31:23;17.70;99.90
37380;DHT22;23252;-33.992;18.480;2023-06-01T08:33:51;17.60;99.90
37380;DHT22;23252;-33.992;18.480;2023-06-01T08:36:19;17.60;99.90
37380;DHT22;23252;-33.992;18.480;2023-06-01T08:38:45;17.70;99.90
37380;DHT22;23252;-33.992;18.480;2023-06-01T08:41:20;17.70;99.90
37380;DHT22;23252;-33.992;18.480;2023-06-01T08:44:03;17.70;99.90
37380;DHT22;23252;-33.992;18.480;2023-06-01T08:46:32;17.80;99.90
37380;DHT22;23252;-33.992;18.480;2023-06-01T08:48:59;17.80;99.90
37380;DHT22;23252;-33.992;18.480;2023-06-01T08:51:26;17.90;99.90
37380;DHT22;23252;-33.992;18.480;2023-06-01T08:53:54;17.80;99.90
37380;DHT22;23252;-33.992;18.480;2023-06-01T08:56:23;17.80;99.90
37380;DHT22;23252;-33.992;18.480;2023-06-01T08:58:50;17.70;99.90
37380;DHT22;23252;-33.992;18.480;2023-06-01T09:01:17;17.70;99.90
37380;DHT22;23252;-33.992;18.480;2023-06-01T09:03:53;17.70;99.90
37380;DHT22;23252;-33.992;18.480;2023-06-01T09:06:19;17.70;99.90
37380;DHT22;23252;-33.992;18.480;2023-06-01T09:08:46;17.70;99.90
37380;DHT22;23252;-33.992;18.480;2023-06-01T09:11:12;17.70;99.90
37380;DHT22;23252;-33.992;18.480;2023-06-01T09:13:40;17.80;99.90
37380;DHT22;23252;-33.992;18.480;2023-06-01T09:16:07;17.90;99.90
37380;DHT22;23252;-33.992;18.480;2023-06-01T09:18:34;17.90;99.90
37380;DHT22;23252;-33.992;18.480;2023-06-01T09:21:11;18.00;99.90
37380;DHT22;23252;-33.992;18.480;2023-06-01T09:23:37;18.10;99.90
37380;DHT22;23252;-33.992;18.480;2023-06-01T09:26:05;18.10;99.90
37380;DHT22;23252;-33.992;18.480;2023-06-01T09:28:55;18.20;99.90
37380;DHT22;23252;-33.992;18.480;2023-06-01T09:31:42;18.30;99.90
37380;DHT22;23252;-33.992;18.480;2023-06-01T09:34:15;18.30;99.90
37380;DHT22;23252;-33.992;18.480;2023-06-01T09:36:48;18.30;99.90
37380;DHT22;23252;-33.992;18.480;2023-06-01T09:39:18;18.30;99.90
37380;DHT22;23252;-33.992;18.480;2023-06-01T09:41:58;18.30;99.90
37380;DHT22;23252;-33.992;18.480;2023-06-01T09:44:33;18.30;99.90
37380;DHT22;23252;-33.992;18.480;2023-06-01T09:47:01;18.20;99.90
37380;DHT22;23252;-33.992;18.480;2023-06-01T09:49:30;18.30;99.90
37380;DHT22;23252;-33.992;18.480;2023-06-01T09:57:02;18.40;99.90
37380;DHT22;23252;-33.992;18.480;2023-06-01T09:59:37;18.40;99.90
37380;DHT22;23252;-33.992;18.480;2023-06-01T10:02:04;18.50;99.90
37380;DHT22;23252;-33.992;18.480;2023-06-01T10:04:33;18.70;99.90
37380;DHT22;23252;-33.992;18.480;2023-06-01T10:07:02;18.80;99.90
37380;DHT22;23252;-33.992;18.480;2023-06-01T10:09:30;18.80;99.90
37380;DHT22;23252;-33.992;18.480;2023-06-01T10:11:58;18.80;99.90
37380;DHT22;23252;-33.992;18.480;2023-06-01T10:14:25;18.90;99.90
37380;DHT22;23252;-33.992;18.480;2023-06-01T10:16:52;18.90;99.90
37380;DHT22;23252;-33.992;18.480;2023-06-01T10:19:21;18.90;99.90
37380;DHT22;23252;-33.992;18.480;2023-06-01T10:21:48;19.00;99.90
37380;DHT22;23252;-33.992;18.480;2023-06-01T10:24:19;19.10;99.90
37380;DHT22;23252;-33.992;18.480;2023-06-01T10:26:56;19.00;99.90
37380;DHT22;23252;-33.992;18.480;2023-06-01T10:29:24;19.00;99.90
37380;DHT22;23252;-33.992;18.480;2023-06-01T10:31:51;18.90;99.90
37380;DHT22;23252;-33.992;18.480;2023-06-01T10:34:37;18.90;99.90
37380;DHT22;23252;-33.992;18.480;2023-06-01T10:39:32;18.70;99.90
37380;DHT22;23252;-33.992;18.480;2023-06-01T10:44:46;18.90;99.90
37380;DHT22;23252;-33.992;18.480;2023-06-01T10:52:34;18.90;99.90
37380;DHT22;23252;-33.992;18.480;2023-06-01T10:57:43;18.80;99.90
37380;DHT22;23252;-33.992;18.480;2023-06-01T11:00:25;18.80;99.90
37380;DHT22;23252;-33.992;18.480;2023-06-01T11:02:57;18.80;99.90
37380;DHT22;23252;-33.992;18.480;2023-06-01T11:13:38;18.90;99.90
37380;DHT22;23252;-33.992;18.480;2023-06-01T11:18:59;18.80;99.90
37380;DHT22;23252;-33.992;18.480;2023-06-01T11:21:42;18.90;99.90
37380;DHT22;23252;-33.992;18.480;2023-06-01T11:24:12;18.90;99.90
37380;DHT22;23252;-33.992;18.480;2023-06-01T11:26:49;18.90;99.90
37380;DHT22;23252;-33.992;18.480;2023-06-01T11:29:20;18.90;99.90
37380;DHT22;23252;-33.992;18.480;2023-06-01T11:31:55;19.10;99.90
37380;DHT22;23252;-33.992;18.480;2023-06-01T11:34:35;19.20;99.90
37380;DHT22;23252;-33.992;18.480;2023-06-01T11:37:05;19.30;99.90
37380;DHT22;23252;-33.992;18.480;2023-06-01T11:39:31;19.40;99.90
37380;DHT22;23252;-33.992;18.480;2023-06-01T11:42:06;19.40;99.90
37380;DHT22;23252;-33.992;18.480;2023-06-01T11:44:34;19.50;99.90
37380;DHT22;23252;-33.992;18.480;2023-06-01T11:47:01;19.60;99.90
37380;DHT22;23252;-33.992;18.480;2023-06-01T11:49:28;19.70;99.90
37380;DHT22;23252;-33.992;18.480;2023-06-01T11:51:55;19.80;99.90
37380;DHT22;23252;-33.992;18.480;2023-06-01T11:54:28;19.80;99.90
37380;DHT22;23252;-33.992;18.480;2023-06-01T11:56:56;19.80;99.90
37380;DHT22;23252;-33.992;18.480;2023-06-01T11:59:23;19.70;99.90
37380;DHT22;23252;-33.992;18.480;2023-06-01T12:01:50;19.60;99.90
37380;DHT22;23252;-33.992;18.480;2023-06-01T12:04:20;19.50;99.90
37380;DHT22;23252;-33.992;18.480;2023-06-01T12:06:47;19.60;99.90
37380;DHT22;23252;-33.992;18.480;2023-06-01T12:09:15;19.80;99.90
37380;DHT22;23252;-33.992;18.480;2023-06-01T12:11:43;20.00;99.90
37380;DHT22;23252;-33.992;18.480;2023-06-01T12:14:14;20.30;99.90
37380;DHT22;23252;-33.992;18.480;2023-06-01T12:16:58;20.30;99.90
37380;DHT22;23252;-33.992;18.480;2023-06-01T12:19:25;20.30;99.90
37380;DHT22;23252;-33.992;18.480;2023-06-01T12:21:55;20.20;99.90
37380;DHT22;23252;-33.992;18.480;2023-06-01T12:24:30;20.10;99.90
37380;DHT22;23252;-33.992;18.480;2023-06-01T12:26:59;19.80;99.90
37380;DHT22;23252;-33.992;18.480;2023-06-01T12:29:39;19.80;99.90
37380;DHT22;23252;-33.992;18.480;2023-06-01T12:32:08;19.80;99.90
37380;DHT22;23252;-33.992;18.480;2023-06-01T12:34:39;19.80;99.90
37380;DHT22;23252;-33.992;18.480;2023-06-01T12:37:16;19.80;99.90
37380;DHT22;23252;-33.992;18.480;2023-06-01T12:39:50;19.70;99.90
37380;DHT22;23252;-33.992;18.480;2023-06-01T12:42:18;19.70;99.90
37380;DHT22;23252;-33.992;18.480;2023-06-01T12:44:44;19.60;99.90
37380;DHT22;23252;-33.992;18.480;2023-06-01T12:47:12;19.50;99.90
37380;DHT22;23252;-33.992;18.480;2023-06-01T12:49:38;19.50;99.90
37380;DHT22;23252;-33.992;18.480;2023-06-01T12:52:06;19.50;99.90
37380;DHT22;23252;-33.992;18.480;2023-06-01T12:54:32;19.50;99.90
37380;DHT22;23252;-33.992;18.480;2023-06-01T12:56:59;19.60;99.90
37380;DHT22;23252;-33.992;18.480;2023-06-01T12:59:26;19.50;99.90
37380;DHT22;23252;-33.992;18.480;2023-06-01T13:01:52;19.50;99.90
37380;DHT22;23252;-33.992;18.480;2023-06-01T13:04:19;19.50;99.90
37380;DHT22;23252;-33.992;18.480;2023-06-01T13:06:45;19.40;99.90
37380;DHT22;23252;-33.992;18.480;2023-06-01T13:09:12;19.30;99.90
37380;DHT22;23252;-33.992;18.480;2023-06-01T13:11:40;19.30;99.90
37380;DHT22;23252;-33.992;18.480;2023-06-01T13:14:06;19.30;99.90
37380;DHT22;23252;-33.992;18.480;2023-06-01T13:16:33;19.30;99.90
37380;DHT22;23252;-33.992;18.480;2023-06-01T13:18:59;19.30;99.90
37380;DHT22;23252;-33.992;18.480;2023-06-01T13:21:26;19.20;99.90
37380;DHT22;23252;-33.992;18.480;2023-06-01T13:23:52;19.20;99.90
37380;DHT22;23252;-33.992;18.480;2023-06-01T13:26:19;19.20;99.90
37380;DHT22;23252;-33.992;18.480;2023-06-01T13:28:48;19.20;99.90
37380;DHT22;23252;-33.992;18.480;2023-06-01T13:31:14;19.20;99.90
37380;DHT22;23252;-33.992;18.480;2023-06-01T13:33:40;19.10;99.90
37380;DHT22;23252;-33.992;18.480;2023-06-01T13:36:07;19.00;99.90
37380;DHT22;23252;-33.992;18.480;2023-06-01T13:38:33;19.00;99.90
37380;DHT22;23252;-33.992;18.480;2023-06-01T13:41:00;19.00;99.90
37380;DHT22;23252;-33.992;18.480;2023-06-01T13:43:26;18.90;99.90
37380;DHT22;23252;-33.992;18.480;2023-06-01T13:45:53;18.80;99.90
37380;DHT22;23252;-33.992;18.480;2023-06-01T13:48:20;18.80;99.90
37380;DHT22;23252;-33.992;18.480;2023-06-01T13:50:46;18.70;99.90
37380;DHT22;23252;-33.992;18.480;2023-06-01T13:53:13;18.70;99.90
37380;DHT22;23252;-33.992;18.480;2023-06-01T13:55:39;18.50;99.90
37380;DHT22;23252;-33.992;18.480;2023-06-01T13:58:06;18.30;99.90
37380;DHT22;23252;-33.992;18.480;2023-06-01T14:00:33;18.20;99.90
37380;DHT22;23252;-33.992;18.480;2023-06-01T14:02:59;18.20;99.90
37380;DHT22;23252;-33.992;18.480;2023-06-01T14:05:26;18.20;99.90
37380;DHT22;23252;-33.992;18.480;2023-06-01T14:07:52;18.10;99.90
37380;DHT22;23252;-33.992;18.480;2023-06-01T14:10:19;18.10;99.90
37380;DHT22;23252;-33.992;18.480;2023-06-01T14:12:45;18.00;99.90
37380;DHT22;23252;-33.992;18.480;2023-06-01T14:15:12;18.00;99.90
37380;DHT22;23252;-33.992;18.480;2023-06-01T14:17:39;17.90;99.90
37380;DHT22;23252;-33.992;18.480;2023-06-01T14:20:06;18.00;99.90
37380;DHT22;23252;-33.992;18.480;2023-06-01T14:22:32;18.00;99.90
37380;DHT22;23252;-33.992;18.480;2023-06-01T14:24:59;17.90;99.90
37380;DHT22;23252;-33.992;18.480;2023-06-01T14:27:25;17.90;99.90
37380;DHT22;23252;-33.992;18.480;2023-06-01T14:29:52;17.90;99.90
37380;DHT22;23252;-33.992;18.480;2023-06-01T14:32:18;17.90;99.90
37380;DHT22;23252;-33.992;18.480;2023-06-01T14:34:45;17.80;99.90
37380;DHT22;23252;-33.992;18.480;2023-06-01T14:37:11;17.80;99.90
37380;DHT22;23252;-33.992;18.480;2023-06-01T14:39:39;17.80;99.90
37380;DHT22;23252;-33.992;18.480;2023-06-01T14:42:06;17.70;99.90
37380;DHT22;23252;-33.992;18.480;2023-06-01T14:44:33;17.60;99.90
37380;DHT22;23252;-33.992;18.480;2023-06-01T14:46:59;17.50;99.90
37380;DHT22;23252;-33.992;18.480;2023-06-01T14:49:26;17.50;99.90
37380;DHT22;23252;-33.992;18.480;2023-06-01T14:51:52;17.40;99.90
37380;DHT22;23252;-33.992;18.480;2023-06-01T14:54:19;17.40;99.90
37380;DHT22;23252;-33.992;18.480;2023-06-01T14:56:45;17.40;99.90
37380;DHT22;23252;-33.992;18.480;2023-06-01T14:59:12;17.30;99.90
37380;DHT22;23252;-33.992;18.480;2023-06-01T15:01:38;17.20;99.90
37380;DHT22;23252;-33.992;18.480;2023-06-01T15:04:07;17.20;99.90
37380;DHT22;23252;-33.992;18.480;2023-06-01T15:06:33;17.20;99.90
37380;DHT22;23252;-33.992;18.480;2023-06-01T15:09:03;17.20;99.90
37380;DHT22;23252;-33.992;18.480;2023-06-01T15:11:29;17.20;99.90
37380;DHT22;23252;-33.992;18.480;2023-06-01T15:13:56;17.20;99.90
37380;DHT22;23252;-33.992;18.480;2023-06-01T15:16:22;17.20;99.90
37380;DHT22;23252;-33.992;18.480;2023-06-01T15:18:49;17.20;99.90
37380;DHT22;23252;-33.992;18.480;2023-06-01T15:21:15;17.30;99.90
37380;DHT22;23252;-33.992;18.480;2023-06-01T15:23:42;17.20;99.90
37380;DHT22;23252;-33.992;18.480;2023-06-01T15:26:08;17.20;99.90
37380;DHT22;23252;-33.992;18.480;2023-06-01T15:28:35;17.20;99.90
37380;DHT22;23252;-33.992;18.480;2023-06-01T15:31:01;17.10;99.90
37380;DHT22;23252;-33.992;18.480;2023-06-01T15:33:28;17.00;99.90
37380;DHT22;23252;-33.992;18.480;2023-06-01T15:35:54;17.00;99.90
37380;DHT22;23252;-33.992;18.480;2023-06-01T15:38:26;17.00;99.90
37380;DHT22;23252;-33.992;18.480;2023-06-01T15:40:53;17.00;99.90
37380;DHT22;23252;-33.992;18.480;2023-06-01T15:43:19;17.00;99.90
37380;DHT22;23252;-33.992;18.480;2023-06-01T15:45:46;17.00;99.90
37380;DHT22;23252;-33.992;18.480;2023-06-01T15:48:12;17.00;99.90
37380;DHT22;23252;-33.992;18.480;2023-06-01T15:50:39;17.00;99.90
37380;DHT22;23252;-33.992;18.480;2023-06-01T15:53:05;17.00;99.90
37380;DHT22;23252;-33.992;18.480;2023-06-01T15:55:32;17.00;99.90
37380;DHT22;23252;-33.992;18.480;2023-06-01T15:57:58;16.90;99.90
37380;DHT22;23252;-33.992;18.480;2023-06-01T16:00:25;16.90;99.90
37380;DHT22;23252;-33.992;18.480;2023-06-01T16:02:53;16.80;99.90
37380;DHT22;23252;-33.992;18.480;2023-06-01T16:05:20;16.80;99.90
37380;DHT22;23252;-33.992;18.480;2023-06-01T16:07:46;16.80;99.90
37380;DHT22;23252;-33.992;18.480;2023-06-01T16:10:13;16.70;99.90
37380;DHT22;23252;-33.992;18.480;2023-06-01T16:12:41;16.70;99.90
37380;DHT22;23252;-33.992;18.480;2023-06-01T16:15:07;16.70;99.90
37380;DHT22;23252;-33.992;18.480;2023-06-01T20:14:38;16.30;99.90
37380;DHT22;23252;-33.992;18.480;2023-06-01T20:17:05;16.60;99.90
37380;DHT22;23252;-33.992;18.480;2023-06-01T20:19:32;16.60;99.90
37380;DHT22;23252;-33.992;18.480;2023-06-01T20:21:59;16.60;99.90
37380;DHT22;23252;-33.992;18.480;2023-06-01T20:24:28;16.60;99.90
37380;DHT22;23252;-33.992;18.480;2023-06-01T20:26:57;16.60;99.90
37380;DHT22;23252;-33.992;18.480;2023-06-01T20:29:25;16.60;99.90
37380;DHT22;23252;-33.992;18.480;2023-06-01T20:31:57;16.60;99.90
37380;DHT22;23252;-33.992;18.480;2023-06-01T20:34:24;16.60;99.90
37380;DHT22;23252;-33.992;18.480;2023-06-01T20:36:52;16.60;99.90
37380;DHT22;23252;-33.992;18.480;2023-06-01T20:39:22;16.60;99.90
37380;DHT22;23252;-33.992;18.480;2023-06-01T20:41:52;16.60;99.90
37380;DHT22;23252;-33.992;18.480;2023-06-01T20:44:24;16.60;99.90
37380;DHT22;23252;-33.992;18.480;2023-06-01T20:46:52;16.60;99.90
37380;DHT22;23252;-33.992;18.480;2023-06-01T20:49:25;16.60;99.90
37380;DHT22;23252;-33.992;18.480;2023-06-01T20:51:52;16.60;99.90
37380;DHT22;23252;-33.992;18.480;2023-06-01T20:54:21;16.60;99.90
37380;DHT22;23252;-33.992;18.480;2023-06-01T20:56:53;16.60;99.90
37380;DHT22;23252;-33.992;18.480;2023-06-01T20:59:30;16.60;99.90
37380;DHT22;23252;-33.992;18.480;2023-06-01T21:01:58;16.70;99.90
37380;DHT22;23252;-33.992;18.480;2023-06-01T21:04:27;16.70;99.90
37380;DHT22;23252;-33.992;18.480;2023-06-01T21:06:54;16.70;99.90
37380;DHT22;23252;-33.992;18.480;2023-06-01T21:09:21;16.70;99.90
37380;DHT22;23252;-33.992;18.480;2023-06-01T21:11:50;16.70;99.90
37380;DHT22;23252;-33.992;18.480;2023-06-01T21:14:17;16.70;99.90
37380;DHT22;23252;-33.992;18.480;2023-06-01T21:16:44;16.70;99.90
37380;DHT22;23252;-33.992;18.480;2023-06-01T21:19:10;16.60;99.90
37380;DHT22;23252;-33.992;18.480;2023-06-01T21:21:37;16.70;99.90
37380;DHT22;23252;-33.992;18.480;2023-06-01T21:24:13;16.70;99.90
37380;DHT22;23252;-33.992;18.480;2023-06-01T21:26:39;16.70;99.90
37380;DHT22;23252;-33.992;18.480;2023-06-01T21:29:06;16.70;99.90
37380;DHT22;23252;-33.992;18.480;2023-06-01T21:31:34;16.70;99.90
37380;DHT22;23252;-33.992;18.480;2023-06-01T21:34:01;16.70;99.90
37380;DHT22;23252;-33.992;18.480;2023-06-01T21:36:27;16.70;99.90
37380;DHT22;23252;-33.992;18.480;2023-06-01T21:38:54;16.70;99.90
37380;DHT22;23252;-33.992;18.480;2023-06-01T21:41:20;16.70;99.90
37380;DHT22;23252;-33.992;18.480;2023-06-01T21:43:47;16.70;99.90
37380;DHT22;23252;-33.992;18.480;2023-06-01T21:46:14;16.70;99.90
37380;DHT22;23252;-33.992;18.480;2023-06-01T21:48:40;16.70;99.90
37380;DHT22;23252;-33.992;18.480;2023-06-01T21:51:07;16.70;99.90
37380;DHT22;23252;-33.992;18.480;2023-06-01T21:53:34;16.70;99.90
37380;DHT22;23252;-33.992;18.480;2023-06-01T21:56:00;16.70;99.90
37380;DHT22;23252;-33.992;18.480;2023-06-01T21:58:27;16.70;99.90
37380;DHT22;23252;-33.992;18.480;2023-06-01T22:00:55;16.70;99.90
37380;DHT22;23252;-33.992;18.480;2023-06-01T22:03:22;16.70;99.90
37380;DHT22;23252;-33.992;18.480;2023-06-01T22:05:48;16.70;99.90
37380;DHT22;23252;-33.992;18.480;2023-06-01T22:08:17;16.70;99.90
37380;DHT22;23252;-33.992;18.480;2023-06-01T22:10:43;16.70;99.90
37380;DHT22;23252;-33.992;18.480;2023-06-01T22:13:10;16.70;99.90
37380;DHT22;23252;-33.992;18.480;2023-06-01T22:15:37;16.70;99.90
37380;DHT22;23252;-33.992;18.480;2023-06-01T22:18:05;16.70;99.90
37380;DHT22;23252;-33.992;18.480;2023-06-01T22:20:32;16.70;99.90
37380;DHT22;23252;-33.992;18.480;2023-06-01T22:22:58;16.70;99.90
37380;DHT22;23252;-33.992;18.480;2023-06-01T22:25:25;16.70;99.90
37380;DHT22;23252;-33.992;18.480;2023-06-01T22:27:51;16.70;99.90
37380;DHT22;23252;-33.992;18.480;2023-06-01T22:30:18;16.70;99.90
37380;DHT22;23252;-33.992;18.480;2023-06-01T22:32:45;16.70;99.90
37380;DHT22;23252;-33.992;18.480;2023-06-01T22:35:11;16.70;99.90
37380;DHT22;23252;-33.992;18.480;2023-06-01T22:37:38;16.70;99.90
37380;DHT22;23252;-33.992;18.480;2023-06-01T22:40:05;16.60;99.90
37380;DHT22;23252;-33.992;18.480;2023-06-01T22:42:34;16.60;99.90
37380;DHT22;23252;-33.992;18.480;2023-06-01T22:45:01;16.60;99.90
37380;DHT22;23252;-33.992;18.480;2023-06-01T22:47:29;16.60;99.90
37380;DHT22;23252;-33.992;18.480;2023-06-01T22:49:55;16.50;99.90
37380;DHT22;23252;-33.992;18.480;2023-06-01T22:52:23;16.50;99.90
37380;DHT22;23252;-33.992;18.480;2023-06-01T22:54:53;16.50;99.90
37380;DHT22;23252;-33.992;18.480;2023-06-01T22:57:20;16.50;99.90
37380;DHT22;23252;-33.992;18.480;2023-06-01T22:59:48;16.50;99.90
37380;DHT22;23252;-33.992;18.480;2023-06-01T23:02:14;16.40;99.90
37380;DHT22;23252;-33.992;18.480;2023-06-01T23:04:41;16.40;99.90
37380;DHT22;23252;-33.992;18.480;2023-06-01T23:07:11;16.30;99.90
37380;DHT22;23252;-33.992;18.480;2023-06-01T23:09:38;16.40;99.90
37380;DHT22;23252;-33.992;18.480;2023-06-01T23:12:06;16.40;99.90
37380;DHT22;23252;-33.992;18.480;2023-06-01T23:14:32;16.40;99.90
37380;DHT22;23252;-33.992;18.480;2023-06-01T23:17:02;16.30;99.90
37380;DHT22;23252;-33.992;18.480;2023-06-01T23:19:30;16.30;99.90
37380;DHT22;23252;-33.992;18.480;2023-06-01T23:22:03;16.20;99.90
37380;DHT22;23252;-33.992;18.480;2023-06-01T23:24:30;16.20;99.90
37380;DHT22;23252;-33.992;18.480;2023-06-01T23:27:00;16.10;99.90
37380;DHT22;23252;-33.992;18.480;2023-06-01T23:29:27;16.00;99.90
37380;DHT22;23252;-33.992;18.480;2023-06-01T23:31:54;16.00;99.90
37380;DHT22;23252;-33.992;18.480;2023-06-01T23:34:21;16.00;99.90
37380;DHT22;23252;-33.992;18.480;2023-06-01T23:36:48;16.00;99.90
37380;DHT22;23252;-33.992;18.480;2023-06-01T23:39:19;16.00;99.90
37380;DHT22;23252;-33.992;18.480;2023-06-01T23:41:49;16.00;99.90